createdAt,value
2023-05-19T00:04:42.021Z,102799.88
2023-05-19T00:09:32.594Z,102809.97
2023-05-19T00:14:22.953Z,102809.59
2023-05-19T00:19:14.382Z,102801.09
2023-05-19T00:24:07.106Z,102787.41
2023-05-19T00:28:59.727Z,102790.38
2023-05-19T00:33:50.035Z,102760.88
2023-05-19T00:38:41.326Z,102788.25
2023-05-19T00:43:34.514Z,102786.75
2023-05-19T00:48:24.745Z,102802.19
2023-05-19T00:53:15.693Z,102799.84
2023-05-19T00:58:08.640Z,102765.19
2023-05-19T01:03:11.600Z,102796.75
2023-05-19T01:08:03.001Z,102793.38
2023-05-19T01:12:53.372Z,102803.38
2023-05-19T01:17:54.833Z,102796.38
2023-05-19T01:23:17.012Z,102791.22
2023-05-19T01:28:29.245Z,102779.06
2023-05-19T01:33:24.416Z,102782.72
2023-05-19T01:38:19.446Z,102768.81
2023-05-19T01:43:14.258Z,102769.75
2023-05-19T01:48:07.233Z,102765.72
2023-05-19T01:53:04.626Z,102765.00
2023-05-19T01:58:05.721Z,102764.63
2023-05-19T02:03:01.718Z,102776.97
2023-05-19T02:07:59.074Z,102756.91
2023-05-19T02:12:59.636Z,102757.81
2023-05-19T02:17:52.220Z,102772.88
2023-05-19T02:22:43.037Z,102763.22
2023-05-19T02:27:32.940Z,102758.94
2023-05-19T02:32:25.710Z,102755.47
2023-05-19T02:37:15.830Z,102761.50
2023-05-19T02:42:06.306Z,102760.00
2023-05-19T02:46:56.286Z,102731.84
2023-05-19T02:51:48.777Z,102729.97
2023-05-19T02:56:39.019Z,102736.28
2023-05-19T03:01:29.042Z,102725.22
2023-05-19T03:06:20.194Z,102740.06
2023-05-19T03:11:12.675Z,102734.72
2023-05-19T03:16:03.673Z,102723.25
2023-05-19T03:20:54.134Z,102724.22
2023-05-19T03:25:44.092Z,102704.31
2023-05-19T03:30:37.691Z,102724.31
2023-05-19T03:35:41.368Z,102727.22
2023-05-19T03:40:33.999Z,102717.69
2023-05-19T03:45:28.677Z,102726.06
2023-05-19T03:50:21.894Z,102725.94
2023-05-19T03:55:16.615Z,102710.28
2023-05-19T04:00:11.399Z,102730.69
2023-05-19T04:05:06.047Z,102717.94
2023-05-19T04:09:59.066Z,102726.59
2023-05-19T04:14:51.269Z,102735.03
2023-05-19T04:19:42.407Z,102748.59
2023-05-19T04:24:34.693Z,102745.19
2023-05-19T04:29:29.657Z,102749.00
2023-05-19T04:34:21.159Z,102755.31
2023-05-19T04:39:12.829Z,102754.44
2023-05-19T04:44:06.807Z,102745.78
2023-05-19T04:49:01.475Z,102753.09
2023-05-19T04:53:55.152Z,102746.06
2023-05-19T04:58:48.599Z,102759.34
2023-05-19T05:03:41.962Z,102757.38
2023-05-19T05:08:40.616Z,102745.97
2023-05-19T05:13:33.922Z,102767.97
2023-05-19T05:18:27.215Z,102772.50
2023-05-19T05:23:17.562Z,102775.06
2023-05-19T05:28:12.255Z,102775.84
2023-05-19T05:33:02.417Z,102779.22
2023-05-19T05:38:12.510Z,102772.97
2023-05-19T05:43:03.383Z,102763.94
2023-05-19T05:47:59.136Z,102766.41
2023-05-19T05:52:49.311Z,102775.94
2023-05-19T05:57:42.119Z,102774.78
2023-05-19T06:02:33.161Z,102775.38
2023-05-19T06:07:25.730Z,102772.38
2023-05-19T06:12:15.742Z,102769.34
2023-05-19T06:17:10.383Z,102764.47
2023-05-19T06:22:00.455Z,102759.59
2023-05-19T06:26:53.610Z,102775.19
2023-05-19T06:31:43.549Z,102779.34
2023-05-19T06:36:36.169Z,102779.94
2023-05-19T06:41:26.066Z,102770.59
2023-05-19T06:46:19.674Z,102779.06
2023-05-19T06:51:10.432Z,102783.16
2023-05-19T06:56:02.539Z,102785.31
2023-05-19T07:00:56.231Z,102779.47
2023-05-19T07:05:51.771Z,102775.22
2023-05-19T07:10:41.808Z,102775.47
2023-05-19T07:15:38.542Z,102777.38
2023-05-19T07:20:29.779Z,102779.47
2023-05-19T07:25:23.374Z,102776.97
2023-05-19T07:30:17.496Z,102755.28
2023-05-19T07:35:09.513Z,102769.66
2023-05-19T07:39:59.478Z,102771.72
2023-05-19T07:44:52.053Z,102763.88
2023-05-19T07:49:42.027Z,102759.44
2023-05-19T07:54:31.917Z,102760.22
2023-05-19T07:59:21.700Z,102739.97
2023-05-19T08:04:14.599Z,102730.91
2023-05-19T08:09:05.786Z,102715.22
2023-05-19T08:13:55.950Z,102719.41
2023-05-19T08:18:46.932Z,102729.06
2023-05-19T08:23:40.204Z,102732.97
2023-05-19T08:28:30.094Z,102734.09
2023-05-19T08:33:21.661Z,102738.09
2023-05-19T08:38:13.538Z,102715.69
2023-05-19T08:43:06.554Z,102704.81
2023-05-19T08:47:57.058Z,102707.38
2023-05-19T08:52:56.201Z,102701.66
2023-05-19T08:57:46.935Z,102706.22
2023-05-19T09:02:50.566Z,102704.31
2023-05-19T09:07:52.154Z,102689.22
2023-05-19T09:12:42.098Z,102709.56
2023-05-19T09:17:32.103Z,102695.34
2023-05-19T09:22:25.711Z,102715.41
2023-05-19T09:27:17.956Z,102702.16
2023-05-19T09:32:08.223Z,102694.72
2023-05-19T09:37:00.105Z,102701.19
2023-05-19T09:41:54.240Z,102690.69
2023-05-19T09:46:50.909Z,102700.91
2023-05-19T09:51:40.789Z,102701.25
2023-05-19T09:56:34.693Z,102698.81
2023-05-19T10:01:27.432Z,102691.88
2023-05-19T10:06:17.413Z,102699.66
2023-05-19T10:11:08.707Z,102702.63
2023-05-19T10:16:00.786Z,102682.53
2023-05-19T10:20:54.968Z,102688.78
2023-05-19T10:25:46.215Z,102676.81
2023-05-19T10:30:39.871Z,102663.72
2023-05-19T10:35:51.935Z,102681.28
2023-05-19T10:40:59.173Z,102673.75
2023-05-19T10:45:52.231Z,102648.31
2023-05-19T10:50:44.978Z,102670.88
2023-05-19T10:55:53.402Z,102673.88
2023-05-19T11:00:43.587Z,102667.69
2023-05-19T11:05:39.552Z,102661.28
2023-05-19T11:10:29.417Z,102659.41
2023-05-19T11:15:21.708Z,102656.78
2023-05-19T11:20:13.436Z,102653.09
2023-05-19T11:25:04.305Z,102631.34
2023-05-19T11:29:56.674Z,102652.84
2023-05-19T11:34:52.978Z,102651.59
2023-05-19T11:39:43.938Z,102638.38
2023-05-19T11:44:36.751Z,102640.34
2023-05-19T11:49:27.073Z,102630.16
2023-05-19T11:54:22.394Z,102645.28
2023-05-19T11:59:12.693Z,102632.50
2023-05-19T12:04:03.859Z,102627.19
2023-05-19T12:08:54.335Z,102630.28
2023-05-19T12:13:47.402Z,102612.50
2023-05-19T12:18:40.573Z,102591.13
2023-05-19T12:23:32.191Z,102590.56
2023-05-19T12:28:23.038Z,102591.03
2023-05-19T12:33:19.098Z,102602.41
2023-05-19T12:38:10.060Z,102603.00
2023-05-19T12:43:00.771Z,102609.84
2023-05-19T12:47:53.085Z,102583.66
2023-05-19T12:52:51.429Z,102584.34
2023-05-19T12:57:43.463Z,102591.16
2023-05-19T13:02:34.508Z,102593.16
2023-05-19T13:07:24.626Z,102565.81
2023-05-19T13:12:19.021Z,102511.59
2023-05-19T13:17:09.224Z,102555.78
2023-05-19T13:21:59.712Z,102562.91
2023-05-19T13:26:49.645Z,102565.81
2023-05-19T13:31:42.409Z,102547.38
2023-05-19T13:36:33.490Z,102550.00
2023-05-19T13:41:29.557Z,102541.16
2023-05-19T13:46:26.607Z,102528.34
2023-05-19T13:51:25.653Z,102536.28
2023-05-19T13:56:15.978Z,102520.63
2023-05-19T14:01:05.883Z,102523.94
2023-05-19T14:05:55.823Z,102539.50
2023-05-19T14:10:49.498Z,102513.56
2023-05-19T14:15:39.313Z,102527.41
2023-05-19T14:20:29.568Z,102509.81
2023-05-19T14:25:19.517Z,102526.31
2023-05-19T14:30:13.124Z,102521.22
2023-05-19T14:35:02.975Z,102527.41
2023-05-19T14:39:53.002Z,102522.53
2023-05-19T14:44:42.896Z,102514.41
2023-05-19T14:49:35.248Z,102506.16
2023-05-19T14:54:25.264Z,102513.44
2023-05-19T14:59:15.401Z,102500.25
2023-05-19T15:04:05.297Z,102505.22
2023-05-19T15:08:57.860Z,102503.53
2023-05-19T15:13:47.720Z,102496.41
2023-05-19T15:18:37.838Z,102499.38
2023-05-19T15:23:27.832Z,102493.69
2023-05-19T15:28:20.600Z,102502.66
2023-05-19T15:33:10.395Z,102494.47
2023-05-19T15:38:05.455Z,102493.22
2023-05-19T15:42:55.662Z,102488.56
2023-05-19T15:47:48.729Z,102497.41
2023-05-19T15:52:38.640Z,102488.06
2023-05-19T15:57:28.520Z,102478.75
2023-05-19T16:02:18.430Z,102467.00
2023-05-19T16:07:10.993Z,102479.81
2023-05-19T16:12:00.982Z,102472.16
2023-05-19T16:16:51.205Z,102469.59
2023-05-19T16:21:41.217Z,102475.28
2023-05-19T16:26:34.538Z,102466.31
2023-05-19T16:31:24.363Z,102465.22
2023-05-19T16:36:14.210Z,102473.22
2023-05-19T16:41:05.437Z,102463.53
2023-05-19T16:45:57.917Z,102467.06
2023-05-19T16:50:50.348Z,102463.63
2023-05-19T16:55:40.218Z,102457.00
2023-05-19T17:00:31.512Z,102454.47
2023-05-19T17:05:24.103Z,102460.13
2023-05-19T17:10:14.647Z,102446.22
2023-05-19T17:15:04.693Z,102466.00
2023-05-19T17:19:56.903Z,102458.94
2023-05-19T17:24:49.409Z,102459.94
2023-05-19T17:29:39.166Z,102454.88
2023-05-19T17:34:30.218Z,102459.22
2023-05-19T17:39:20.406Z,102460.19
2023-05-19T17:44:13.141Z,102466.00
2023-05-19T17:49:03.001Z,102461.56
2023-05-19T17:53:53.520Z,102471.22
2023-05-19T17:58:44.513Z,102474.22
2023-05-19T18:03:38.617Z,102473.22
2023-05-19T18:08:29.513Z,102474.09
2023-05-19T18:13:19.375Z,102473.72
2023-05-19T18:18:10.778Z,102464.22
2023-05-19T18:23:03.589Z,102478.09
2023-05-19T18:27:55.948Z,102491.91
2023-05-19T18:32:45.849Z,102487.59
2023-05-19T18:37:37.045Z,102487.81
2023-05-19T18:42:29.818Z,102470.53
2023-05-19T18:47:20.012Z,102492.34
2023-05-19T18:52:10.058Z,102487.00
2023-05-19T18:57:00.386Z,102502.09
2023-05-19T19:01:54.126Z,102494.28
2023-05-19T19:06:44.156Z,102504.09
2023-05-19T19:11:36.946Z,102496.59
2023-05-19T19:16:27.267Z,102499.41
2023-05-19T19:21:20.356Z,102497.75
2023-05-19T19:26:11.168Z,102504.72
2023-05-19T19:31:01.337Z,102507.25
2023-05-19T19:35:51.460Z,102519.50
2023-05-19T19:40:46.129Z,102483.47
2023-05-19T19:45:39.528Z,102529.81
2023-05-19T19:50:29.570Z,102529.28
2023-05-19T19:55:20.998Z,102530.47
2023-05-19T20:00:15.512Z,102537.06
2023-05-19T20:05:06.035Z,102541.19
2023-05-19T20:09:56.186Z,102542.94
2023-05-19T20:14:46.228Z,102547.13
2023-05-19T20:19:38.884Z,102537.81
2023-05-19T20:24:28.619Z,102538.13
2023-05-19T20:29:18.287Z,102543.56
2023-05-19T20:34:07.953Z,102542.47
2023-05-19T20:39:00.293Z,102552.81
2023-05-19T20:43:50.050Z,102553.13
2023-05-19T20:48:40.559Z,102559.84
2023-05-19T20:53:30.326Z,102558.38
2023-05-19T20:58:22.965Z,102557.25
2023-05-19T21:03:12.937Z,102563.09
2023-05-19T21:08:02.956Z,102565.22
2023-05-19T21:12:52.849Z,102562.59
2023-05-19T21:17:46.840Z,102561.19
2023-05-19T21:22:36.964Z,102559.75
2023-05-19T21:27:26.714Z,102559.31
2023-05-19T21:32:16.416Z,102564.06
2023-05-19T21:37:10.744Z,102563.34
2023-05-19T21:42:00.700Z,102569.38
2023-05-19T21:46:50.514Z,102574.78
2023-05-19T21:51:40.342Z,102580.28
2023-05-19T21:56:35.054Z,102579.81
2023-05-19T22:01:25.074Z,102582.16
2023-05-19T22:06:14.753Z,102577.78
2023-05-19T22:11:04.507Z,102570.47
2023-05-19T22:15:57.571Z,102583.50
2023-05-19T22:20:47.336Z,102580.13
2023-05-19T22:25:37.078Z,102548.88
2023-05-19T22:30:26.746Z,102580.72
2023-05-19T22:35:19.214Z,102577.66
2023-05-19T22:40:09.410Z,102576.31
2023-05-19T22:44:59.135Z,102574.66
2023-05-19T22:49:48.725Z,102574.13
2023-05-19T22:54:41.107Z,102577.84
2023-05-19T22:59:30.888Z,102589.59
2023-05-19T23:04:20.488Z,102577.38
2023-05-19T23:09:10.403Z,102571.28
2023-05-19T23:14:02.833Z,102574.94
2023-05-19T23:18:56.119Z,102579.56
2023-05-19T23:23:45.762Z,102578.28
2023-05-19T23:28:35.405Z,102577.13
2023-05-19T23:33:28.050Z,102581.03
2023-05-19T23:38:18.001Z,102580.16
2023-05-19T23:43:07.940Z,102584.13
2023-05-19T23:47:57.704Z,102573.69
2023-05-19T23:52:51.431Z,102580.50
2023-05-19T23:57:41.023Z,102566.78
